createdAt,value
2019-05-30T00:01:42.040Z,8.40
2019-05-30T00:04:10.466Z,8.30
2019-05-30T00:06:38.925Z,8.30
2019-05-30T00:09:09.071Z,8.30
2019-05-30T00:11:37.850Z,8.20
2019-05-30T00:14:06.358Z,8.20
2019-05-30T00:16:40.963Z,8.20
2019-05-30T00:19:09.394Z,8.20
2019-05-30T00:21:38.147Z,8.20
2019-05-30T00:24:08.314Z,8.20
2019-05-30T00:26:37.261Z,8.10
2019-05-30T00:29:06.686Z,8.10
2019-05-30T00:31:35.225Z,8.10
2019-05-30T00:34:04.239Z,8.10
2019-05-30T00:36:32.962Z,8.10
2019-05-30T00:39:03.911Z,8.00
2019-05-30T00:41:32.777Z,8.00
2019-05-30T00:44:02.131Z,8.00
2019-05-30T00:46:30.743Z,8.00
2019-05-30T00:49:00.177Z,8.00
2019-05-30T00:51:28.798Z,7.90
2019-05-30T00:53:58.622Z,7.90
2019-05-30T00:56:27.376Z,7.90
2019-05-30T00:58:56.476Z,7.80
2019-05-30T01:01:25.194Z,7.80
2019-05-30T01:03:54.650Z,7.70
2019-05-30T01:06:23.128Z,7.70
2019-05-30T01:08:51.583Z,7.60
2019-05-30T01:11:20.007Z,7.50
2019-05-30T01:13:49.635Z,7.50
2019-05-30T01:16:18.482Z,7.50
2019-05-30T01:18:47.597Z,7.40
2019-05-30T01:21:16.858Z,7.40
2019-05-30T01:23:46.149Z,7.30
2019-05-30T01:26:14.920Z,7.30
2019-05-30T01:28:48.792Z,7.30
2019-05-30T01:31:17.741Z,7.20
2019-05-30T01:33:46.182Z,7.20
2019-05-30T01:36:14.907Z,7.20
2019-05-30T01:38:43.693Z,7.10
2019-05-30T01:41:12.124Z,7.10
2019-05-30T01:43:40.572Z,7.00
2019-05-30T01:46:09.000Z,7.00
2019-05-30T01:48:37.737Z,7.00
2019-05-30T01:51:06.563Z,7.00
2019-05-30T01:53:35.567Z,6.90
2019-05-30T01:56:04.800Z,6.90
2019-05-30T01:58:33.736Z,6.90
2019-05-30T02:01:17.074Z,6.80
2019-05-30T02:03:32.331Z,6.80
2019-05-30T02:06:01.029Z,6.90
2019-05-30T02:08:29.666Z,6.80
2019-05-30T02:10:59.183Z,6.80
2019-05-30T02:13:28.135Z,6.80
2019-05-30T02:15:57.140Z,6.80
2019-05-30T02:18:25.926Z,6.70
2019-05-30T02:20:54.342Z,6.80
2019-05-30T02:23:23.116Z,6.80
2019-05-30T02:25:51.873Z,6.70
2019-05-30T02:28:20.671Z,6.80
2019-05-30T02:30:49.087Z,6.80
2019-05-30T02:33:17.536Z,6.90
2019-05-30T02:35:45.953Z,6.90
2019-05-30T02:38:23.274Z,6.90
2019-05-30T02:40:51.697Z,6.90
2019-05-30T02:43:20.142Z,6.90
2019-05-30T02:45:48.873Z,6.90
2019-05-30T02:48:17.667Z,6.90
2019-05-30T02:50:46.088Z,6.90
2019-05-30T02:53:14.528Z,6.90
2019-05-30T02:55:43.890Z,6.90
2019-05-30T02:58:13.327Z,6.80
2019-05-30T03:00:41.922Z,6.80
2019-05-30T03:03:14.244Z,6.80
2019-05-30T03:05:43.528Z,6.80
2019-05-30T03:08:14.265Z,6.80
2019-05-30T03:10:42.741Z,6.80
2019-05-30T03:13:12.878Z,6.90
2019-05-30T03:15:42.073Z,6.90
2019-05-30T03:18:12.806Z,7.00
2019-05-30T03:20:40.872Z,7.00
2019-05-30T03:23:10.417Z,7.00
2019-05-30T03:25:39.630Z,7.10
2019-05-30T03:28:09.058Z,7.10
2019-05-30T03:30:38.909Z,7.20
2019-05-30T03:33:24.320Z,7.20
2019-05-30T03:35:42.850Z,7.30
2019-05-30T03:38:10.478Z,7.30
2019-05-30T03:40:38.707Z,7.30
2019-05-30T03:43:09.208Z,7.40
2019-05-30T03:45:58.678Z,7.40
2019-05-30T03:48:29.051Z,7.50
2019-05-30T03:51:18.347Z,7.60
2019-05-30T03:53:47.546Z,7.70
2019-05-30T03:56:19.072Z,7.90
2019-05-30T03:58:59.649Z,8.00
2019-05-30T04:01:54.053Z,8.10
2019-05-30T04:04:49.862Z,8.30
2019-05-30T04:07:23.637Z,8.60
2019-05-30T04:10:13.487Z,8.60
2019-05-30T04:13:03.336Z,8.80
2019-05-30T04:15:33.283Z,9.10
2019-05-30T04:18:02.280Z,9.40
2019-05-30T04:20:31.974Z,9.60
2019-05-30T04:23:00.843Z,9.80
2019-05-30T04:25:29.288Z,9.90
2019-05-30T04:27:58.034Z,10.00
2019-05-30T04:30:26.516Z,10.10
2019-05-30T04:33:21.068Z,10.30
2019-05-30T04:35:37.071Z,10.40
2019-05-30T04:38:05.602Z,10.60
2019-05-30T04:40:34.103Z,10.90
2019-05-30T04:43:02.545Z,11.00
2019-05-30T04:45:30.998Z,11.20
2019-05-30T04:47:59.812Z,11.40
2019-05-30T04:50:28.291Z,11.70
2019-05-30T04:52:56.786Z,11.90
2019-05-30T04:55:25.200Z,12.00
2019-05-30T04:57:53.902Z,12.00
2019-05-30T05:00:22.606Z,12.30
2019-05-30T05:02:51.045Z,12.60
2019-05-30T05:05:25.950Z,12.90
2019-05-30T05:07:50.613Z,13.20
2019-05-30T05:10:20.436Z,13.60
2019-05-30T05:12:48.992Z,13.90
2019-05-30T05:15:18.674Z,14.10
2019-05-30T05:17:47.284Z,14.40
2019-05-30T05:20:17.248Z,15.10
2019-05-30T05:22:45.773Z,15.40
2019-05-30T05:25:15.418Z,15.50
2019-05-30T05:27:44.011Z,16.00
2019-05-30T05:30:14.416Z,16.30
2019-05-30T05:32:43.188Z,16.70
2019-05-30T05:35:11.932Z,17.30
2019-05-30T05:37:40.648Z,17.70
2019-05-30T05:40:09.150Z,18.20
2019-05-30T05:42:37.598Z,18.50
2019-05-30T05:45:10.733Z,18.20
2019-05-30T05:47:39.180Z,18.10
2019-05-30T05:50:08.178Z,18.20
2019-05-30T05:52:36.620Z,18.30
2019-05-30T05:55:06.224Z,18.40
2019-05-30T05:57:35.925Z,18.60
2019-05-30T06:00:06.888Z,17.90
2019-05-30T06:02:35.652Z,17.80
2019-05-30T06:05:07.216Z,18.00
2019-05-30T06:07:35.660Z,17.50
2019-05-30T06:10:24.251Z,17.00
2019-05-30T06:12:53.029Z,16.80
2019-05-30T06:15:22.936Z,16.40
2019-05-30T06:17:51.950Z,16.50
2019-05-30T06:20:43.560Z,16.50
2019-05-30T06:23:13.273Z,16.50
2019-05-30T06:25:41.706Z,16.70
2019-05-30T06:28:10.154Z,16.80
2019-05-30T06:30:38.596Z,16.70
2019-05-30T06:33:07.041Z,16.70
2019-05-30T06:35:36.472Z,16.90
2019-05-30T06:38:05.167Z,17.30
2019-05-30T06:40:35.665Z,17.40
2019-05-30T06:43:04.147Z,17.00
2019-05-30T06:45:32.660Z,17.00
2019-05-30T06:48:01.099Z,16.90
2019-05-30T06:50:30.915Z,17.10
2019-05-30T06:52:59.564Z,17.20
2019-05-30T06:55:29.412Z,17.30
2019-05-30T06:57:58.074Z,17.50
2019-05-30T07:00:28.007Z,17.70
2019-05-30T07:02:56.611Z,17.60
2019-05-30T07:05:28.510Z,17.80
2019-05-30T07:07:57.188Z,17.80
2019-05-30T07:10:26.789Z,17.80
2019-05-30T07:12:55.366Z,17.50
2019-05-30T07:15:25.060Z,17.70
2019-05-30T07:17:53.678Z,17.80
2019-05-30T07:20:24.000Z,18.50
2019-05-30T07:22:52.802Z,19.00
2019-05-30T07:25:21.670Z,19.10
2019-05-30T07:27:50.386Z,18.70
2019-05-30T07:30:20.408Z,18.30
2019-05-30T07:32:48.853Z,18.50
2019-05-30T07:35:17.904Z,19.10
2019-05-30T07:37:46.898Z,19.40
2019-05-30T07:40:19.481Z,19.80
2019-05-30T07:42:46.224Z,20.10
2019-05-30T07:45:15.384Z,20.30
2019-05-30T07:47:44.095Z,20.60
2019-05-30T07:50:12.808Z,21.20
2019-05-30T07:52:50.069Z,21.40
2019-05-30T07:55:18.577Z,21.50
2019-05-30T07:57:47.912Z,21.10
2019-05-30T08:00:35.710Z,20.90
2019-05-30T08:03:04.285Z,21.10
2019-05-30T08:05:32.783Z,20.70
2019-05-30T08:08:02.568Z,20.00
2019-05-30T08:10:31.999Z,19.70
2019-05-30T08:13:00.979Z,19.30
2019-05-30T08:15:29.545Z,19.30
2019-05-30T08:17:58.366Z,19.20
2019-05-30T08:20:27.645Z,19.30
2019-05-30T08:22:56.208Z,20.00
2019-05-30T08:25:24.942Z,20.70
2019-05-30T08:27:53.368Z,20.90
2019-05-30T08:30:22.314Z,21.30
2019-05-30T08:32:50.755Z,21.50
2019-05-30T08:35:19.907Z,21.10
2019-05-30T08:37:48.332Z,20.70
2019-05-30T08:40:16.843Z,20.40
2019-05-30T08:42:45.292Z,20.10
2019-05-30T08:45:16.690Z,19.80
2019-05-30T08:47:45.147Z,19.70
2019-05-30T08:50:14.616Z,19.80
2019-05-30T08:52:43.041Z,20.10
2019-05-30T08:55:11.922Z,19.80
2019-05-30T08:57:41.012Z,19.80
2019-05-30T09:00:12.299Z,20.20
2019-05-30T09:02:41.050Z,20.30
2019-05-30T09:05:10.747Z,20.50
2019-05-30T09:07:40.206Z,20.10
2019-05-30T09:10:10.308Z,19.60
2019-05-30T09:12:41.000Z,19.40
2019-05-30T09:15:14.115Z,19.30
2019-05-30T09:17:44.608Z,19.10
2019-05-30T09:20:14.088Z,19.10
2019-05-30T09:22:43.733Z,18.90
2019-05-30T09:25:13.339Z,18.90
2019-05-30T09:27:42.949Z,19.00
2019-05-30T09:30:13.783Z,19.20
2019-05-30T09:32:43.189Z,19.10
2019-05-30T09:35:13.232Z,18.90
2019-05-30T09:37:42.482Z,18.80
2019-05-30T09:40:32.876Z,18.60
2019-05-30T09:43:01.331Z,18.60
2019-05-30T09:45:30.202Z,18.50
2019-05-30T09:47:58.634Z,18.60
2019-05-30T09:50:27.969Z,18.50
2019-05-30T09:52:56.416Z,18.50
2019-05-30T09:55:25.208Z,18.60
2019-05-30T09:57:53.683Z,18.60
2019-05-30T10:00:24.126Z,18.70
2019-05-30T10:02:52.715Z,18.80
2019-05-30T10:05:24.460Z,18.90
2019-05-30T10:07:52.996Z,18.90
2019-05-30T10:10:22.340Z,19.10
2019-05-30T10:12:50.776Z,19.40
2019-05-30T10:15:20.441Z,19.30
2019-05-30T10:17:51.784Z,19.40
2019-05-30T10:20:20.061Z,19.50
2019-05-30T10:22:50.807Z,19.60
2019-05-30T10:25:20.701Z,19.60
2019-05-30T10:27:52.155Z,19.60
2019-05-30T10:30:21.432Z,19.40
2019-05-30T10:32:51.886Z,19.30
2019-05-30T10:35:21.687Z,19.20
2019-05-30T10:37:50.945Z,19.20
2019-05-30T10:40:20.076Z,19.30
2019-05-30T10:42:49.591Z,19.40
2019-05-30T10:45:20.791Z,19.50
2019-05-30T10:47:51.389Z,19.70
2019-05-30T10:50:20.356Z,20.00
2019-05-30T10:52:49.496Z,20.40
2019-05-30T10:55:19.409Z,20.20
2019-05-30T10:57:48.622Z,20.10
2019-05-30T11:00:21.335Z,19.80
2019-05-30T11:02:51.084Z,19.80
2019-05-30T11:05:20.315Z,19.80
2019-05-30T11:08:06.111Z,19.60
2019-05-30T11:10:40.670Z,19.50
2019-05-30T11:13:11.933Z,19.40
2019-05-30T11:15:40.352Z,19.40
2019-05-30T11:18:08.952Z,19.40
2019-05-30T11:20:37.830Z,19.50
2019-05-30T11:23:06.589Z,19.60
2019-05-30T11:25:35.472Z,19.50
2019-05-30T11:28:05.358Z,19.30
2019-05-30T11:30:33.860Z,19.40
2019-05-30T11:33:10.430Z,19.40
2019-05-30T11:35:39.184Z,19.40
2019-05-30T11:38:07.621Z,19.50
2019-05-30T11:40:37.009Z,19.40
2019-05-30T11:43:05.456Z,19.50
2019-05-30T11:45:34.317Z,19.70
2019-05-30T11:48:02.828Z,19.70
2019-05-30T11:50:31.497Z,19.50
2019-05-30T11:53:00.238Z,19.40
2019-05-30T11:55:48.181Z,19.40
2019-05-30T11:58:19.606Z,19.20
2019-05-30T12:00:47.168Z,19.30
2019-05-30T12:03:15.971Z,19.20
2019-05-30T12:05:45.362Z,19.10
2019-05-30T12:08:14.172Z,19.10
2019-05-30T12:10:42.605Z,19.10
2019-05-30T12:13:11.054Z,19.10
2019-05-30T12:15:39.811Z,19.00
2019-05-30T12:18:08.504Z,18.90
2019-05-30T12:20:36.965Z,18.90
2019-05-30T12:23:05.453Z,19.00
2019-05-30T12:25:33.889Z,19.10
2019-05-30T12:28:04.109Z,19.20
2019-05-30T12:30:32.657Z,19.30
2019-05-30T12:33:02.477Z,19.40
2019-05-30T12:35:32.304Z,19.40
2019-05-30T12:38:05.056Z,19.40
2019-05-30T12:40:31.933Z,19.50
2019-05-30T12:43:03.064Z,19.50
2019-05-30T12:45:31.212Z,19.50
2019-05-30T12:47:59.723Z,19.40
2019-05-30T12:50:28.233Z,19.30
2019-05-30T12:52:57.605Z,19.30
2019-05-30T12:55:26.266Z,19.30
2019-05-30T12:57:54.796Z,19.30
2019-05-30T13:00:28.967Z,19.20
2019-05-30T13:02:57.404Z,19.20
2019-05-30T13:05:26.208Z,19.10
2019-05-30T13:08:12.065Z,19.10
2019-05-30T13:10:25.977Z,19.10
2019-05-30T13:12:55.542Z,19.20
2019-05-30T13:15:25.926Z,19.10
2019-05-30T13:17:55.740Z,19.20
2019-05-30T13:20:24.816Z,19.20
2019-05-30T13:22:53.688Z,19.40
2019-05-30T13:25:23.206Z,19.40
2019-05-30T13:27:51.893Z,19.50
2019-05-30T13:30:21.118Z,19.60
2019-05-30T13:32:51.571Z,19.60
2019-05-30T13:35:20.612Z,19.80
2019-05-30T13:37:49.332Z,19.80
2019-05-30T13:40:24.986Z,19.80
2019-05-30T13:42:48.647Z,19.70
2019-05-30T13:45:17.733Z,19.60
2019-05-30T13:47:46.241Z,19.50
2019-05-30T13:50:16.263Z,19.30
2019-05-30T13:52:45.001Z,19.30
2019-05-30T13:55:13.847Z,19.40
2019-05-30T13:57:42.359Z,19.30
2019-05-30T14:00:13.208Z,19.30
2019-05-30T14:02:42.111Z,19.40
2019-05-30T14:05:12.253Z,19.30
2019-05-30T14:07:40.685Z,19.20
2019-05-30T14:10:10.766Z,19.20
2019-05-30T14:12:39.744Z,19.20
2019-05-30T14:15:14.443Z,19.20
2019-05-30T14:17:50.378Z,19.30
2019-05-30T14:20:19.757Z,19.40
2019-05-30T14:22:48.203Z,19.50
2019-05-30T14:25:17.237Z,19.80
2019-05-30T14:27:45.936Z,19.90
2019-05-30T14:30:14.708Z,19.90
2019-05-30T14:32:43.136Z,20.00
2019-05-30T14:35:13.928Z,20.10
2019-05-30T14:37:42.832Z,20.10
2019-05-30T14:40:16.200Z,20.10
2019-05-30T14:42:44.717Z,20.10
2019-05-30T14:45:16.835Z,20.00
2019-05-30T14:47:45.412Z,20.20
2019-05-30T14:50:14.682Z,20.20
2019-05-30T14:52:43.370Z,20.00
2019-05-30T14:55:14.397Z,19.90
2019-05-30T14:57:42.844Z,19.90
2019-05-30T15:00:17.920Z,19.90
2019-05-30T15:02:47.748Z,19.90
2019-05-30T15:05:23.101Z,20.00
2019-05-30T15:07:51.553Z,19.90
2019-05-30T15:10:20.340Z,19.80
2019-05-30T15:12:49.057Z,19.90
2019-05-30T15:15:18.912Z,20.00
2019-05-30T15:17:48.428Z,20.00
2019-05-30T15:20:18.408Z,19.90
2019-05-30T15:22:47.759Z,19.80
2019-05-30T15:25:17.967Z,19.70
2019-05-30T15:28:06.044Z,19.70
2019-05-30T15:30:34.610Z,19.50
2019-05-30T15:33:03.859Z,19.50
2019-05-30T15:35:33.104Z,19.50
2019-05-30T15:38:01.689Z,19.50
2019-05-30T15:40:30.452Z,19.50
2019-05-30T15:43:00.960Z,19.50
2019-05-30T15:45:29.133Z,19.40
2019-05-30T15:47:57.643Z,19.40
2019-05-30T15:50:26.219Z,19.40
2019-05-30T15:52:54.941Z,19.40
2019-05-30T15:55:24.940Z,19.40
2019-05-30T15:57:53.389Z,19.40
2019-05-30T16:00:22.691Z,19.30
2019-05-30T16:02:52.246Z,19.30
2019-05-30T16:05:21.432Z,19.30
2019-05-30T16:07:50.226Z,19.20
2019-05-30T16:10:28.074Z,19.10
2019-05-30T16:12:56.812Z,19.10
2019-05-30T16:15:25.269Z,19.20
2019-05-30T16:17:53.709Z,19.20
2019-05-30T16:20:22.139Z,19.20
2019-05-30T16:22:50.987Z,19.20
2019-05-30T16:25:19.780Z,19.20
2019-05-30T16:27:48.348Z,19.40
2019-05-30T16:30:22.021Z,19.40
2019-05-30T16:32:49.133Z,19.30
2019-05-30T16:35:20.468Z,19.30
2019-05-30T16:37:49.797Z,19.40
2019-05-30T16:40:18.452Z,19.40
2019-05-30T16:42:46.964Z,19.40
2019-05-30T16:45:20.223Z,19.30
2019-05-30T16:47:49.209Z,19.30
2019-05-30T16:50:18.949Z,19.30
2019-05-30T16:52:47.470Z,19.30
2019-05-30T16:55:17.094Z,19.20
2019-05-30T16:57:45.741Z,19.20
2019-05-30T17:00:15.679Z,19.10
2019-05-30T17:02:45.452Z,19.00
2019-05-30T17:05:18.354Z,19.00
2019-05-30T17:07:48.606Z,18.90
2019-05-30T17:10:23.306Z,18.90
2019-05-30T17:12:48.018Z,18.90
2019-05-30T17:15:17.668Z,18.80
2019-05-30T17:17:51.062Z,18.70
2019-05-30T17:20:20.542Z,18.70
2019-05-30T17:22:49.253Z,18.70
2019-05-30T17:25:19.054Z,18.60
2019-05-30T17:27:47.616Z,18.70
2019-05-30T17:30:17.495Z,18.70
2019-05-30T17:32:46.333Z,18.70
2019-05-30T17:35:15.604Z,18.60
2019-05-30T17:37:44.311Z,18.70
2019-05-30T17:40:13.980Z,18.60
2019-05-30T17:42:44.764Z,18.60
2019-05-30T17:45:13.959Z,18.60
2019-05-30T17:47:42.572Z,18.60
2019-05-30T17:50:13.282Z,18.60
2019-05-30T17:52:42.084Z,18.60
2019-05-30T17:55:12.628Z,18.60
2019-05-30T17:57:42.984Z,18.60
2019-05-30T18:00:13.980Z,18.60
2019-05-30T18:02:42.609Z,18.60
2019-05-30T18:05:13.432Z,18.50
2019-05-30T18:07:42.195Z,18.50
2019-05-30T18:10:13.656Z,18.50
2019-05-30T18:12:42.445Z,18.50
2019-05-30T18:15:13.384Z,18.50
2019-05-30T18:17:41.811Z,18.50
2019-05-30T18:20:11.303Z,18.50
2019-05-30T18:22:41.909Z,18.50
2019-05-30T18:25:11.861Z,18.40
2019-05-30T18:27:40.300Z,18.40
2019-05-30T18:30:10.124Z,18.40
2019-05-30T18:32:38.560Z,18.40
2019-05-30T18:35:07.778Z,18.40
2019-05-30T18:37:37.552Z,18.40
2019-05-30T18:40:10.388Z,18.40
2019-05-30T18:42:38.852Z,18.30
2019-05-30T18:45:12.725Z,18.30
2019-05-30T18:47:42.183Z,18.40
2019-05-30T18:50:11.033Z,18.30
2019-05-30T18:52:39.464Z,18.30
2019-05-30T18:55:08.440Z,18.30
2019-05-30T18:57:37.408Z,18.20
2019-05-30T19:00:25.541Z,18.30
2019-05-30T19:02:54.960Z,18.20
2019-05-30T19:05:24.452Z,18.20
2019-05-30T19:07:53.329Z,18.20
2019-05-30T19:10:22.687Z,18.20
2019-05-30T19:12:51.133Z,18.20
2019-05-30T19:15:19.924Z,18.10
2019-05-30T19:17:48.424Z,18.10
2019-05-30T19:20:18.688Z,18.10
2019-05-30T19:22:54.837Z,18.00
2019-05-30T19:25:23.677Z,18.00
2019-05-30T19:27:52.104Z,18.00
2019-05-30T19:30:20.992Z,18.00
2019-05-30T19:32:49.417Z,18.00
2019-05-30T19:35:18.524Z,18.00
2019-05-30T19:37:47.398Z,18.00
2019-05-30T19:40:17.466Z,17.90
2019-05-30T19:42:45.908Z,17.90
2019-05-30T19:45:16.348Z,17.90
2019-05-30T19:47:45.707Z,17.90
2019-05-30T19:50:16.396Z,17.90
2019-05-30T19:52:46.867Z,17.90
2019-05-30T19:55:15.481Z,17.80
2019-05-30T19:57:43.911Z,17.80
2019-05-30T20:00:14.112Z,17.80
2019-05-30T20:02:42.558Z,17.80
2019-05-30T20:05:12.600Z,17.80
2019-05-30T20:07:41.355Z,17.70
2019-05-30T20:10:11.669Z,17.80
2019-05-30T20:12:41.084Z,17.80
2019-05-30T20:15:11.971Z,17.80
2019-05-30T20:17:41.882Z,17.70
2019-05-30T20:20:11.325Z,17.60
2019-05-30T20:22:40.198Z,17.60
2019-05-30T20:25:09.936Z,17.50
2019-05-30T20:27:39.071Z,17.40
2019-05-30T20:30:10.170Z,17.40
2019-05-30T20:32:38.979Z,17.30
2019-05-30T20:35:08.069Z,17.20
2019-05-30T20:37:36.843Z,17.20
2019-05-30T20:40:07.269Z,17.20
2019-05-30T20:42:36.701Z,17.10
2019-05-30T20:45:10.232Z,17.00
2019-05-30T20:47:40.809Z,17.00
2019-05-30T20:50:12.864Z,17.00
2019-05-30T20:52:45.293Z,17.00
2019-05-30T20:55:13.313Z,17.00
2019-05-30T20:57:42.542Z,17.00
2019-05-30T21:00:13.155Z,16.90
2019-05-30T21:02:43.512Z,16.90
2019-05-30T21:05:13.914Z,16.80
2019-05-30T21:07:44.316Z,16.80
2019-05-30T21:10:15.230Z,16.70
2019-05-30T21:12:48.973Z,16.70
2019-05-30T21:15:17.387Z,16.70
2019-05-30T21:17:47.058Z,16.70
2019-05-30T21:20:16.078Z,16.60
2019-05-30T21:22:44.824Z,16.60
2019-05-30T21:25:14.202Z,16.50
2019-05-30T21:27:42.974Z,16.50
2019-05-30T21:30:12.324Z,16.50
2019-05-30T21:32:42.079Z,16.40
2019-05-30T21:35:11.717Z,16.40
2019-05-30T21:37:41.739Z,16.40
2019-05-30T21:40:10.864Z,16.30
2019-05-30T21:42:55.673Z,16.30
2019-05-30T21:45:09.808Z,16.30
2019-05-30T21:47:38.762Z,16.20
2019-05-30T21:50:09.048Z,16.20
2019-05-30T21:52:37.750Z,16.20
2019-05-30T21:55:07.698Z,16.10
2019-05-30T21:57:36.405Z,16.10
2019-05-30T22:00:15.736Z,16.00
2019-05-30T22:02:53.352Z,16.10
2019-05-30T22:05:22.261Z,16.00
2019-05-30T22:07:51.234Z,16.00
2019-05-30T22:10:19.804Z,16.00
2019-05-30T22:12:48.252Z,16.00
2019-05-30T22:15:17.030Z,16.10
2019-05-30T22:17:45.806Z,16.00
2019-05-30T22:20:14.873Z,16.00
2019-05-30T22:22:43.888Z,16.00
2019-05-30T22:25:33.385Z,15.90
2019-05-30T22:28:01.816Z,15.90
2019-05-30T22:30:52.853Z,15.80
2019-05-30T22:33:21.715Z,15.80
2019-05-30T22:35:50.998Z,15.80
2019-05-30T22:38:19.486Z,15.80
2019-05-30T22:40:47.976Z,15.80
2019-05-30T22:43:24.795Z,15.80
2019-05-30T22:45:46.652Z,15.80
2019-05-30T22:48:15.369Z,15.70
2019-05-30T22:50:44.745Z,15.70
2019-05-30T22:53:13.223Z,15.70
2019-05-30T22:55:41.643Z,15.60
2019-05-30T22:58:10.079Z,15.60
2019-05-30T23:00:38.839Z,15.60
2019-05-30T23:03:07.297Z,15.60
2019-05-30T23:05:37.771Z,15.60
2019-05-30T23:08:06.228Z,15.50
2019-05-30T23:10:36.622Z,15.40
2019-05-30T23:13:11.432Z,15.40
2019-05-30T23:15:39.924Z,15.40
2019-05-30T23:18:08.364Z,15.40
2019-05-30T23:20:36.832Z,15.50
2019-05-30T23:23:05.344Z,15.50
2019-05-30T23:25:33.767Z,15.60
2019-05-30T23:28:02.228Z,15.60
2019-05-30T23:30:32.840Z,15.60
2019-05-30T23:33:01.276Z,15.70
2019-05-30T23:35:29.992Z,15.80
2019-05-30T23:37:58.842Z,15.80
2019-05-30T23:40:27.453Z,15.80
2019-05-30T23:42:57.136Z,15.80
2019-05-30T23:45:26.672Z,15.70
2019-05-30T23:47:55.542Z,15.60
2019-05-30T23:50:24.413Z,15.40
2019-05-30T23:52:53.983Z,15.20
2019-05-30T23:55:23.012Z,15.10
2019-05-30T23:57:58.638Z,15.00
